Hattiesburg Laurel Regional Airport Hattiesburg,Laurel US
ICAO: KPIB
IATA: PIB
Category: Medium
Scheduled Services: Yes

Elevation: 298 ft
TransAlt. 18000 ft.

Airport Communications:
AWOS 3:128.325
HOUSTON CNTR:126.8
CTAF/UNICOM:123

KPIB Zoom In..

If you have problems with the map follow the link
https://www.worldairports.se/pages/airport.php?
ICAO=KPIB

Runways:

(A) RW 18 length 6502 ft width 150 ft
ILS 109.50 / hdg 181

(B) RW 36 length 6502 ft width 150 ft
---- / hdg 1

Location; KPIB
Day. 08 / Time. 18.56 Zulu
* Altimeter: 30.08
* Temperature: 19° c. 66.2°f.
* Wind from: 120° Speed 06 kn.
Dewpoint: 14° c.
Visibility: 10 Statute Miles.
Clouds: Overcast 2000 ft.

KPIB 081856Z AUTO 12006KT 10SM OVC020 19/14 A3008 RMK AO2 SLP185 T01890144 PNO $


Wind From 120°
Speed 06 kn.

 
 
jpsmedia worldairports.se 2019   terms of use